Time;durP1;ratioP1;P1;durP2;ratioP2;P2;SDS_P1;SDS_P2;PMS_P1;PMS_P2;Temp;Humidity;BMP_temperature;BMP_pressure;BME280_temperature;BME280_humidity;BME280_pressure;Samples;Min_cycle;Max_cycle;Signal;HPM_P1;HPM_P2
2023/01/06 00:00:16;;;;;;;53.30;16.20;;;10.50;99.90;;;;;;5056533;28;20547;-52
2023/01/06 00:02:45;;;;;;;49.97;16.33;;;10.50;99.90;;;;;;5056614;28;20136;-54
2023/01/06 00:05:12;;;;;;;58.83;16.63;;;10.50;99.90;;;;;;5056002;28;20580;-56
2023/01/06 00:07:42;;;;;;;42.40;14.52;;;10.50;99.90;;;;;;5056594;28;20095;-55
2023/01/06 00:10:09;;;;;;;45.20;16.15;;;10.50;99.90;;;;;;5057042;28;20063;-55
2023/01/06 00:12:36;;;;;;;43.80;16.92;;;10.50;99.90;;;;;;5057675;28;20098;-56
2023/01/06 00:15:03;;;;;;;47.45;15.93;;;10.50;99.90;;;;;;5049116;28;20092;-56
2023/01/06 00:17:31;;;;;;;40.60;15.98;;;10.50;99.90;;;;;;5072270;28;20102;-56
2023/01/06 00:19:57;;;;;;;47.38;15.63;;;10.50;99.90;;;;;;5054934;28;20048;-57
2023/01/06 00:22:24;;;;;;;44.28;16.23;;;10.60;99.90;;;;;;5050216;28;20056;-57
2023/01/06 00:24:52;;;;;;;46.15;15.98;;;10.60;99.90;;;;;;5075372;28;20074;-55
2023/01/06 00:27:19;;;;;;;49.95;16.25;;;10.60;99.90;;;;;;5053357;28;20130;-54
2023/01/06 00:29:48;;;;;;;42.58;15.07;;;10.60;99.90;;;;;;5067114;28;20100;-53
2023/01/06 00:32:15;;;;;;;32.10;14.23;;;10.60;99.90;;;;;;5075680;28;20094;-55
2023/01/06 00:34:41;;;;;;;41.13;14.75;;;10.60;99.90;;;;;;5075423;28;20048;-48
2023/01/06 00:37:08;;;;;;;36.72;14.15;;;10.60;99.90;;;;;;5072077;28;20052;-56
2023/01/06 00:39:35;;;;;;;38.60;15.10;;;10.60;99.90;;;;;;5073993;28;20053;-48
2023/01/06 00:42:03;;;;;;;29.85;15.30;;;10.60;99.90;;;;;;5072812;28;20117;-53
2023/01/06 00:44:30;;;;;;;35.72;14.35;;;10.60;99.90;;;;;;5075288;28;20052;-57
2023/01/06 00:46:57;;;;;;;37.00;14.52;;;10.60;99.90;;;;;;5055771;28;20052;-54
2023/01/06 00:49:24;;;;;;;33.75;14.77;;;10.70;99.90;;;;;;5073822;28;20131;-56
2023/01/06 00:51:51;;;;;;;31.45;15.15;;;10.60;99.90;;;;;;5072643;28;20084;-55
2023/01/06 00:54:18;;;;;;;27.10;13.75;;;10.60;99.90;;;;;;5056560;28;20083;-56
2023/01/06 00:56:45;;;;;;;34.00;14.68;;;10.60;99.90;;;;;;5073652;28;20048;-56
2023/01/06 00:59:14;;;;;;;32.13;13.75;;;10.60;99.90;;;;;;5057666;28;20152;-55
2023/01/06 01:01:41;;;;;;;33.55;12.60;;;10.60;99.90;;;;;;5072090;28;20535;-53
2023/01/06 01:04:08;;;;;;;21.13;12.65;;;10.60;99.90;;;;;;5074461;28;20056;-56
2023/01/06 01:06:36;;;;;;;24.05;12.88;;;10.60;99.90;;;;;;5057113;28;20105;-57
2023/01/06 01:09:03;;;;;;;27.10;12.13;;;10.50;99.90;;;;;;5054736;28;20060;-50
2023/01/06 01:14:16;;;;;;;25.10;12.25;;;10.50;99.90;;;;;;5074302;28;20048;-52
2023/01/06 01:16:42;;;;;;;19.80;11.55;;;10.60;99.90;;;;;;5070478;28;20458;-56
2023/01/06 01:19:09;;;;;;;22.60;11.57;;;10.60;99.90;;;;;;5056950;28;20048;-57
2023/01/06 01:21:36;;;;;;;23.35;11.52;;;10.50;99.90;;;;;;5073813;28;20488;-57
2023/01/06 01:24:03;;;;;;;17.80;10.93;;;10.50;99.90;;;;;;5054757;28;20056;-51
2023/01/06 01:26:30;;;;;;;22.00;12.13;;;10.50;99.90;;;;;;5074854;28;20399;-57
2023/01/06 01:28:57;;;;;;;22.30;11.68;;;10.50;99.90;;;;;;5053693;28;20052;-56
2023/01/06 01:31:25;;;;;;;18.20;11.57;;;10.50;99.90;;;;;;5068469;28;20496;-47
2023/01/06 01:33:51;;;;;;;22.42;11.55;;;10.50;99.90;;;;;;5074596;28;20056;-57
2023/01/06 01:36:18;;;;;;;21.27;11.75;;;10.50;99.90;;;;;;5074382;28;20131;-56
2023/01/06 01:38:45;;;;;;;20.23;11.63;;;10.50;99.90;;;;;;5055155;28;20053;-46
2023/01/06 01:41:13;;;;;;;18.75;11.18;;;10.50;99.90;;;;;;5054452;28;20109;-55
2023/01/06 01:43:45;;;;;;;24.17;11.93;;;10.50;99.90;;;;;;5056377;28;20087;-56
2023/01/06 01:46:12;;;;;;;30.20;11.40;;;10.50;99.90;;;;;;5055945;28;20541;-54
2023/01/06 01:48:40;;;;;;;24.80;11.18;;;10.50;99.90;;;;;;5074280;28;20407;-55
2023/01/06 01:51:09;;;;;;;23.65;10.85;;;10.50;99.90;;;;;;5073211;28;20055;-57
2023/01/06 01:53:38;;;;;;;18.67;9.48;;;10.50;99.90;;;;;;5073952;28;20141;-56
2023/01/06 01:56:07;;;;;;;17.52;9.50;;;10.50;99.90;;;;;;5073548;28;20460;-56
2023/01/06 01:58:36;;;;;;;19.70;10.00;;;10.50;99.90;;;;;;5073487;28;20114;-57
2023/01/06 02:01:03;;;;;;;21.52;9.73;;;10.50;99.90;;;;;;5068764;28;20123;-58
2023/01/06 02:03:29;;;;;;;22.17;9.07;;;10.50;99.90;;;;;;5053732;28;20076;-55
2023/01/06 02:06:00;;;;;;;18.38;8.82;;;10.50;99.90;;;;;;5053586;28;20469;-55
2023/01/06 02:08:29;;;;;;;17.23;8.50;;;10.50;99.90;;;;;;5054583;28;20466;-56
2023/01/06 02:10:56;;;;;;;18.00;8.52;;;10.50;99.90;;;;;;5053007;28;20080;-56
2023/01/06 02:13:23;;;;;;;20.90;8.13;;;10.50;99.90;;;;;;5073230;28;20444;-56
2023/01/06 02:15:50;;;;;;;13.80;7.93;;;10.50;99.90;;;;;;5072847;28;20080;-54
2023/01/06 02:18:29;;;;;;;19.90;7.85;;;10.50;99.90;;;;;;5067770;28;20088;-55
2023/01/06 02:21:07;;;;;;;20.60;8.20;;;10.40;99.90;;;;;;5066894;28;20471;-57
2023/01/06 02:23:55;;;;;;;23.60;7.40;;;10.50;99.90;;;;;;5053716;28;20404;-56
2023/01/06 02:27:07;;;;;;;15.73;6.68;;;10.50;99.90;;;;;;5053558;28;20041;-56
2023/01/06 02:30:16;;;;;;;17.20;7.25;;;10.50;99.90;;;;;;5065324;28;20087;-57
2023/01/06 02:32:52;;;;;;;14.63;6.40;;;10.40;99.90;;;;;;5018414;28;20079;-56
2023/01/06 02:35:36;;;;;;;15.90;5.95;;;10.40;99.90;;;;;;5053019;28;20136;-56
2023/01/06 02:38:07;;;;;;;16.83;6.63;;;10.40;99.90;;;;;;5072566;28;20041;-56
2023/01/06 02:40:44;;;;;;;16.60;6.78;;;10.40;99.90;;;;;;5053720;28;20132;-56
2023/01/06 02:43:15;;;;;;;13.55;5.97;;;10.40;99.90;;;;;;5072500;28;20483;-54
2023/01/06 02:45:47;;;;;;;16.17;6.47;;;10.40;99.90;;;;;;5054619;28;20080;-56
2023/01/06 02:48:20;;;;;;;14.60;5.88;;;10.40;99.90;;;;;;5054461;28;20553;-54
2023/01/06 02:50:50;;;;;;;16.05;5.95;;;10.40;99.90;;;;;;5046875;28;20478;-56
2023/01/06 02:53:20;;;;;;;12.70;5.95;;;10.40;99.90;;;;;;5054452;28;20049;-56
2023/01/06 02:55:47;;;;;;;15.43;6.63;;;10.40;99.90;;;;;;5071253;28;20063;-56
2023/01/06 02:58:17;;;;;;;9.98;6.30;;;10.40;99.90;;;;;;5072859;28;20056;-56
2023/01/06 03:00:47;;;;;;;13.95;6.68;;;10.40;99.90;;;;;;5051353;28;20087;-57
2023/01/06 03:03:16;;;;;;;15.27;6.35;;;10.40;99.90;;;;;;5061379;28;20084;-56
2023/01/06 03:05:45;;;;;;;13.25;6.40;;;10.40;99.90;;;;;;5049875;28;20123;-57
2023/01/06 03:08:13;;;;;;;14.77;6.68;;;10.40;99.90;;;;;;5052347;28;20071;-56
2023/01/06 03:10:40;;;;;;;15.52;6.53;;;10.40;99.90;;;;;;5053263;28;20091;-57
2023/01/06 03:13:08;;;;;;;13.98;7.13;;;10.40;99.90;;;;;;5071664;28;20079;-57
2023/01/06 03:15:35;;;;;;;13.70;7.20;;;10.40;99.90;;;;;;5068930;28;20057;-54
2023/01/06 03:18:02;;;;;;;13.88;6.82;;;10.40;99.90;;;;;;5051473;28;20132;-57
2023/01/06 03:20:30;;;;;;;10.10;6.50;;;10.40;99.90;;;;;;5052601;28;20060;-57
2023/01/06 03:22:57;;;;;;;13.70;6.70;;;10.40;99.90;;;;;;5057579;28;20456;-55
2023/01/06 03:25:24;;;;;;;17.70;8.05;;;10.40;99.90;;;;;;5072418;28;20469;-55
2023/01/06 03:27:50;;;;;;;20.67;7.45;;;10.40;99.90;;;;;;5071444;28;20080;-55
2023/01/06 03:30:17;;;;;;;11.73;6.38;;;10.40;99.90;;;;;;5072333;28;20065;-55
2023/01/06 03:32:48;;;;;;;14.75;6.88;;;10.40;99.90;;;;;;5051149;28;20449;-57
2023/01/06 03:35:26;;;;;;;10.73;7.07;;;10.40;99.90;;;;;;5054436;28;20544;-59
2023/01/06 03:37:58;;;;;;;15.07;7.57;;;10.30;99.90;;;;;;5053646;28;20055;-56
2023/01/06 03:40:29;;;;;;;11.13;6.28;;;10.40;99.90;;;;;;5054836;28;20088;-55
2023/01/06 03:43:12;;;;;;;11.02;7.47;;;10.40;99.90;;;;;;5052370;28;20060;-54
2023/01/06 03:45:58;;;;;;;12.57;6.72;;;10.40;99.90;;;;;;5071947;28;20088;-56
2023/01/06 03:48:31;;;;;;;11.25;6.72;;;10.40;99.90;;;;;;5071967;28;20053;-52
2023/01/06 03:51:00;;;;;;;14.27;6.85;;;10.40;99.90;;;;;;5054706;28;20080;-55
2023/01/06 03:53:33;;;;;;;10.60;6.38;;;10.40;99.90;;;;;;5070624;28;20036;-55
2023/01/06 03:56:04;;;;;;;10.30;6.78;;;10.40;99.90;;;;;;5053995;28;20117;-56
2023/01/06 03:58:30;;;;;;;11.50;5.95;;;10.40;99.90;;;;;;5072155;28;20076;-49
2023/01/06 04:00:57;;;;;;;12.10;5.60;;;10.40;99.90;;;;;;5045328;28;20110;-54
2023/01/06 04:03:25;;;;;;;15.20;5.70;;;10.30;99.90;;;;;;5041235;28;20048;-56
2023/01/06 04:05:51;;;;;;;12.23;5.13;;;10.30;99.90;;;;;;5071936;28;20492;-55
2023/01/06 04:08:18;;;;;;;12.32;4.97;;;10.40;99.90;;;;;;5070879;28;20106;-55
2023/01/06 04:10:46;;;;;;;8.27;4.72;;;10.40;99.90;;;;;;5054753;28;20496;-56
2023/01/06 04:13:12;;;;;;;18.00;5.13;;;10.40;99.90;;;;;;5071139;28;20040;-55
2023/01/06 04:15:39;;;;;;;9.95;4.45;;;10.40;99.90;;;;;;5071415;28;20094;-55
2023/01/06 04:18:06;;;;;;;9.35;4.63;;;10.40;99.90;;;;;;5071844;28;20057;-55
2023/01/06 04:20:32;;;;;;;9.57;4.97;;;10.40;99.90;;;;;;5053657;28;20044;-54
2023/01/06 04:22:59;;;;;;;13.68;4.60;;;10.40;99.90;;;;;;5053255;28;20132;-55
2023/01/06 04:25:26;;;;;;;9.30;4.15;;;10.40;99.90;;;;;;5053242;28;20048;-51
2023/01/06 04:27:54;;;;;;;11.30;4.30;;;10.40;99.90;;;;;;5071301;28;20048;-56
2023/01/06 04:30:21;;;;;;;7.60;4.03;;;10.40;99.90;;;;;;5071029;28;20056;-56
2023/01/06 04:32:48;;;;;;;7.25;4.10;;;10.40;99.90;;;;;;5069096;28;20072;-53
2023/01/06 04:35:15;;;;;;;11.20;4.60;;;10.40;99.90;;;;;;5050204;28;20052;-56
2023/01/06 04:37:42;;;;;;;8.50;3.85;;;10.30;99.90;;;;;;5075680;28;20088;-52
2023/01/06 04:40:10;;;;;;;7.53;4.20;;;10.40;99.90;;;;;;5075564;28;20091;-53
2023/01/06 04:45:19;;;;;;;9.32;4.35;;;10.40;99.90;;;;;;5055614;28;20057;-56
2023/01/06 04:47:45;;;;;;;7.15;4.90;;;10.30;99.90;;;;;;5074338;28;20075;-57
2023/01/06 04:50:12;;;;;;;11.60;5.57;;;10.40;99.90;;;;;;5075485;28;20091;-55
2023/01/06 04:52:39;;;;;;;10.48;5.85;;;10.40;99.90;;;;;;5056811;28;20135;-56
2023/01/06 04:55:06;;;;;;;8.70;6.25;;;10.40;99.90;;;;;;5055953;28;20377;-55
2023/01/06 04:57:33;;;;;;;17.75;8.43;;;10.30;99.90;;;;;;5056933;28;20494;-55
2023/01/06 05:00:00;;;;;;;12.98;7.88;;;10.40;99.90;;;;;;5054501;28;20044;-44
2023/01/06 05:02:28;;;;;;;10.35;8.00;;;10.40;99.90;;;;;;5060806;28;20123;-57
2023/01/06 05:04:55;;;;;;;11.65;7.80;;;10.40;99.90;;;;;;5071401;28;20106;-55
2023/01/06 05:07:22;;;;;;;10.32;8.30;;;10.40;99.90;;;;;;5072678;28;20399;-56
2023/01/06 05:09:48;;;;;;;8.40;7.25;;;10.40;99.90;;;;;;5073056;28;20060;-56
2023/01/06 05:12:15;;;;;;;9.70;7.05;;;10.40;99.90;;;;;;5072754;28;20088;-56
2023/01/06 05:14:42;;;;;;;10.98;6.97;;;10.30;99.90;;;;;;5072200;28;20088;-54
2023/01/06 05:17:09;;;;;;;11.13;6.32;;;10.40;99.90;;;;;;5056749;28;20519;-56
2023/01/06 05:19:43;;;;;;;7.90;6.35;;;10.40;99.90;;;;;;5056413;28;20084;-55
2023/01/06 05:22:10;;;;;;;10.40;5.57;;;10.40;99.90;;;;;;5074972;28;20078;-56
2023/01/06 05:24:36;;;;;;;8.40;5.15;;;10.40;99.90;;;;;;5056163;28;20110;-55
2023/01/06 05:27:03;;;;;;;9.82;4.95;;;10.40;99.90;;;;;;5073857;28;20125;-56
2023/01/06 05:29:30;;;;;;;7.10;4.43;;;10.40;99.90;;;;;;5054428;28;20056;-55
2023/01/06 05:31:57;;;;;;;9.05;4.13;;;10.40;99.90;;;;;;5068482;28;20041;-56
2023/01/06 05:34:24;;;;;;;7.28;3.33;;;10.40;99.90;;;;;;5051592;28;20139;-56
2023/01/06 05:36:52;;;;;;;11.93;4.55;;;10.40;99.90;;;;;;5054194;28;20117;-56
2023/01/06 05:39:19;;;;;;;7.00;3.67;;;10.40;99.90;;;;;;5055321;28;20082;-56
2023/01/06 05:41:45;;;;;;;5.10;3.60;;;10.40;99.90;;;;;;5045155;28;20080;-55
2023/01/06 05:44:12;;;;;;;8.00;3.80;;;10.40;99.90;;;;;;5054485;28;20056;-56
2023/01/06 05:46:39;;;;;;;7.97;3.67;;;10.40;99.90;;;;;;5052929;28;20131;-55
2023/01/06 05:49:06;;;;;;;7.72;4.25;;;10.40;99.90;;;;;;5055708;28;20048;-56
2023/01/06 05:51:33;;;;;;;7.32;4.25;;;10.40;99.90;;;;;;5055477;28;20460;-56
2023/01/06 05:54:01;;;;;;;8.02;4.68;;;10.40;99.90;;;;;;5071920;28;20084;-56
2023/01/06 05:56:27;;;;;;;9.45;4.28;;;10.40;99.90;;;;;;5056374;28;20132;-56
2023/01/06 05:58:54;;;;;;;6.60;4.50;;;10.40;99.90;;;;;;5073885;28;20070;-56
2023/01/06 06:01:22;;;;;;;8.75;5.20;;;10.40;99.90;;;;;;5053703;28;20049;-55
2023/01/06 06:03:49;;;;;;;11.65;5.60;;;10.40;99.90;;;;;;5071074;28;20083;-52
2023/01/06 06:06:16;;;;;;;9.65;6.10;;;10.40;99.90;;;;;;5052884;28;20053;-57
2023/01/06 06:08:43;;;;;;;11.35;6.30;;;10.40;99.90;;;;;;5071432;28;20053;-53
2023/01/06 06:11:12;;;;;;;7.55;5.68;;;10.40;99.90;;;;;;5069341;28;20048;-60
2023/01/06 06:13:39;;;;;;;7.97;5.80;;;10.40;99.90;;;;;;5070924;28;20526;-59
2023/01/06 06:16:06;;;;;;;9.18;5.93;;;10.40;99.90;;;;;;5052672;28;20074;-52
2023/01/06 06:18:33;;;;;;;7.88;6.50;;;10.40;99.90;;;;;;5066073;28;20056;-50
2023/01/06 06:21:01;;;;;;;8.10;5.85;;;10.30;99.90;;;;;;5069385;28;20105;-58
2023/01/06 06:23:28;;;;;;;10.32;6.25;;;10.40;99.90;;;;;;5049319;28;20063;-57
2023/01/06 06:25:55;;;;;;;12.88;6.55;;;10.30;99.90;;;;;;5054680;28;20063;-57
2023/01/06 06:28:23;;;;;;;10.32;7.07;;;10.40;99.90;;;;;;5068982;28;20450;-57
2023/01/06 06:30:50;;;;;;;12.63;7.15;;;10.40;99.90;;;;;;5068005;28;20080;-55
2023/01/06 06:33:16;;;;;;;7.60;6.60;;;10.40;99.90;;;;;;5052960;28;20091;-57
2023/01/06 06:35:43;;;;;;;10.50;6.53;;;10.30;99.90;;;;;;5069034;28;20080;-54
2023/01/06 06:38:10;;;;;;;10.65;6.82;;;10.30;99.90;;;;;;5054361;28;20053;-45
2023/01/06 06:40:37;;;;;;;11.02;7.18;;;10.30;99.90;;;;;;5052516;28;20084;-62
2023/01/06 06:43:03;;;;;;;9.07;6.97;;;10.30;99.90;;;;;;5066656;28;20045;-65
2023/01/06 06:45:32;;;;;;;10.52;6.80;;;10.20;99.90;;;;;;5069402;28;20520;-61
2023/01/06 06:47:58;;;;;;;13.13;7.15;;;10.20;99.90;;;;;;5072556;28;20129;-62
2023/01/06 06:50:25;;;;;;;10.90;7.00;;;10.20;99.90;;;;;;5069239;28;20076;-51
2023/01/06 06:52:52;;;;;;;9.65;7.07;;;10.20;99.90;;;;;;5072051;28;20095;-63
2023/01/06 06:55:19;;;;;;;13.30;7.47;;;10.20;99.90;;;;;;5067849;28;20491;-62
2023/01/06 06:57:46;;;;;;;12.20;7.35;;;10.20;99.90;;;;;;5049667;28;20049;-61
2023/01/06 07:00:14;;;;;;;12.10;7.80;;;10.10;99.90;;;;;;5065938;28;20045;-61
2023/01/06 07:02:42;;;;;;;10.45;7.65;;;10.10;99.90;;;;;;5065063;28;20098;-60
2023/01/06 07:05:09;;;;;;;11.52;8.18;;;10.10;99.90;;;;;;5066845;28;20048;-64
2023/01/06 07:07:35;;;;;;;10.18;6.97;;;10.10;99.90;;;;;;5057731;28;20128;-60
2023/01/06 07:10:02;;;;;;;9.38;8.15;;;10.10;99.90;;;;;;5066587;28;20081;-55
2023/01/06 07:12:29;;;;;;;8.82;7.72;;;10.10;99.90;;;;;;5048937;28;20128;-53
2023/01/06 07:14:56;;;;;;;14.50;8.77;;;10.10;99.90;;;;;;5053257;28;20053;-52
2023/01/06 07:17:26;;;;;;;13.68;8.88;;;10.10;99.90;;;;;;5067544;28;20106;-54
2023/01/06 07:19:54;;;;;;;10.75;8.50;;;10.10;99.90;;;;;;5066810;28;20407;-58
2023/01/06 07:22:21;;;;;;;10.52;8.27;;;10.10;99.90;;;;;;5053321;28;20135;-61
2023/01/06 07:24:48;;;;;;;11.10;9.18;;;10.10;99.90;;;;;;5048389;28;20068;-58
2023/01/06 07:27:15;;;;;;;10.85;8.68;;;10.10;99.90;;;;;;5066905;28;20125;-54
2023/01/06 07:29:42;;;;;;;10.38;8.20;;;10.10;99.90;;;;;;5068833;28;20101;-58
2023/01/06 07:32:08;;;;;;;10.98;7.28;;;10.10;99.90;;;;;;5068589;28;20102;-56
2023/01/06 07:34:35;;;;;;;9.50;7.43;;;10.20;99.90;;;;;;5071264;28;20480;-52
2023/01/06 07:37:03;;;;;;;9.63;8.35;;;10.10;99.90;;;;;;5049585;28;20079;-56
2023/01/06 07:39:30;;;;;;;12.23;7.82;;;10.10;99.90;;;;;;5064069;28;20135;-57
2023/01/06 07:41:57;;;;;;;15.73;11.80;;;10.10;99.90;;;;;;5070080;28;20087;-58
2023/01/06 07:44:24;;;;;;;8.48;7.28;;;10.10;99.90;;;;;;5051055;28;20060;-54
2023/01/06 07:46:50;;;;;;;9.70;7.47;;;10.10;99.90;;;;;;5068934;28;20052;-57
2023/01/06 07:49:17;;;;;;;8.00;6.45;;;10.20;99.90;;;;;;5050921;28;20076;-56
2023/01/06 07:51:44;;;;;;;8.15;6.28;;;10.10;99.90;;;;;;5064054;28;20140;-55
2023/01/06 07:54:12;;;;;;;7.20;5.70;;;10.10;99.90;;;;;;5049148;28;20132;-61
2023/01/06 07:56:39;;;;;;;6.10;4.80;;;10.20;99.90;;;;;;5063938;28;20121;-61
2023/01/06 07:59:06;;;;;;;4.85;4.35;;;10.20;99.90;;;;;;5051351;28;20127;-60
2023/01/06 08:01:32;;;;;;;7.18;3.85;;;10.20;99.90;;;;;;5067088;28;20139;-53
2023/01/06 08:03:59;;;;;;;4.68;3.15;;;10.20;99.90;;;;;;5050450;28;20094;-54
2023/01/06 08:06:26;;;;;;;5.53;3.20;;;10.20;99.90;;;;;;5051513;28;20045;-57
2023/01/06 08:08:53;;;;;;;5.40;2.60;;;10.20;99.90;;;;;;5068924;28;20135;-58
2023/01/06 08:11:21;;;;;;;7.80;2.42;;;10.20;99.90;;;;;;5067905;28;20080;-57
2023/01/06 08:13:48;;;;;;;4.60;1.50;;;10.20;99.90;;;;;;5069533;28;20168;-56
2023/01/06 08:16:15;;;;;;;6.15;1.73;;;10.20;99.90;;;;;;5051731;28;20127;-57
2023/01/06 08:18:42;;;;;;;4.13;1.52;;;10.10;99.90;;;;;;5070772;28;20132;-57
2023/01/06 08:21:10;;;;;;;4.32;1.45;;;10.00;99.90;;;;;;5072546;28;20087;-57
2023/01/06 08:23:38;;;;;;;4.43;1.27;;;10.00;99.90;;;;;;5055224;28;20139;-56
2023/01/06 08:26:05;;;;;;;4.80;1.20;;;9.90;99.90;;;;;;5050288;28;20467;-56
2023/01/06 08:28:33;;;;;;;5.68;1.30;;;9.80;99.90;;;;;;5070008;28;20083;-50
2023/01/06 08:31:00;;;;;;;6.43;1.08;;;9.80;99.90;;;;;;5066753;28;20147;-56
2023/01/06 08:33:27;;;;;;;5.85;1.20;;;9.70;99.90;;;;;;5070573;28;20080;-57
2023/01/06 08:35:58;;;;;;;8.25;1.38;;;9.60;99.90;;;;;;5052865;28;20091;-57
2023/01/06 08:38:25;;;;;;;7.75;1.33;;;9.60;99.90;;;;;;5065776;28;20508;-58
2023/01/06 08:40:52;;;;;;;6.70;1.20;;;9.50;99.90;;;;;;5070471;28;20095;-56
2023/01/06 08:43:18;;;;;;;12.13;1.30;;;9.50;99.90;;;;;;5049829;28;20869;-57
2023/01/06 08:45:49;;;;;;;8.38;1.50;;;9.50;99.90;;;;;;5067379;28;20052;-52
2023/01/06 08:48:16;;;;;;;7.65;1.30;;;9.40;99.90;;;;;;5051313;28;20085;-56
2023/01/06 08:50:43;;;;;;;7.65;1.38;;;9.40;99.90;;;;;;5052320;28;20048;-57
2023/01/06 08:53:10;;;;;;;9.32;1.52;;;9.40;99.90;;;;;;5050750;28;20088;-55
2023/01/06 08:55:38;;;;;;;5.65;1.40;;;9.30;99.90;;;;;;5068848;28;20080;-57
2023/01/06 08:58:05;;;;;;;5.57;1.17;;;9.30;99.90;;;;;;5068560;28;20131;-57
2023/01/06 09:00:31;;;;;;;10.52;1.55;;;9.30;99.90;;;;;;5051241;28;20053;-57
2023/01/06 09:02:59;;;;;;;5.80;1.67;;;9.20;99.90;;;;;;5053403;28;20048;-57
2023/01/06 09:05:26;;;;;;;7.50;1.20;;;9.30;99.90;;;;;;5070159;28;20516;-48
2023/01/06 09:07:54;;;;;;;6.82;1.02;;;9.20;99.90;;;;;;5068180;28;20135;-54
2023/01/06 09:10:21;;;;;;;9.65;1.70;;;9.20;99.90;;;;;;5050507;28;20056;-56
2023/01/06 09:12:47;;;;;;;8.00;1.48;;;9.20;99.90;;;;;;5047055;28;20443;-57
2023/01/06 09:15:14;;;;;;;8.43;1.30;;;9.20;99.90;;;;;;5052060;28;21255;-45
2023/01/06 09:17:41;;;;;;;8.68;1.38;;;9.20;99.90;;;;;;5050260;28;20048;-53
2023/01/06 09:20:10;;;;;;;9.57;1.10;;;9.20;99.90;;;;;;5054872;28;20097;-56
2023/01/06 09:22:37;;;;;;;8.98;1.75;;;9.20;99.90;;;;;;5070913;28;20048;-57
2023/01/06 09:25:04;;;;;;;6.57;1.25;;;9.20;99.90;;;;;;5069524;28;20148;-56
2023/01/06 09:27:31;;;;;;;11.68;1.75;;;9.10;99.90;;;;;;5066810;28;20088;-55
2023/01/06 09:29:57;;;;;;;11.13;1.73;;;9.20;99.90;;;;;;5068886;28;20499;-53
2023/01/06 09:32:24;;;;;;;7.60;1.50;;;9.20;99.90;;;;;;5048335;28;20105;-51
2023/01/06 09:34:51;;;;;;;9.50;1.48;;;9.20;99.90;;;;;;5053213;28;20405;-51
2023/01/06 09:37:19;;;;;;;9.25;1.80;;;9.20;99.90;;;;;;5069978;28;20127;-56
2023/01/06 09:39:46;;;;;;;11.57;2.08;;;9.20;99.90;;;;;;5069174;28;20387;-56
2023/01/06 09:42:36;;;;;;;8.88;1.90;;;9.20;99.90;;;;;;5050980;28;20072;-48
2023/01/06 09:45:04;;;;;;;9.55;1.23;;;9.30;99.90;;;;;;5043336;28;20056;-53
2023/01/06 09:47:33;;;;;;;10.27;1.85;;;9.30;99.90;;;;;;5069632;28;20072;-43
2023/01/06 09:50:02;;;;;;;8.50;1.63;;;9.40;99.90;;;;;;5068786;28;20123;-55
2023/01/06 09:52:33;;;;;;;8.93;1.30;;;9.40;99.90;;;;;;5069330;28;20444;-54
2023/01/06 09:55:01;;;;;;;15.82;1.80;;;9.40;99.90;;;;;;5068235;28;20048;-55
2023/01/06 09:57:30;;;;;;;10.32;1.42;;;9.50;99.90;;;;;;5069325;28;20131;-56
2023/01/06 09:59:59;;;;;;;11.07;1.58;;;9.50;99.90;;;;;;5052048;28;20083;-56
2023/01/06 10:02:27;;;;;;;8.50;1.35;;;9.50;99.90;;;;;;5049322;28;20531;-49
2023/01/06 10:04:54;;;;;;;7.57;1.35;;;9.50;99.90;;;;;;5047794;28;20135;-53
2023/01/06 10:07:23;;;;;;;8.15;1.58;;;9.60;99.90;;;;;;5065221;28;20136;-55
2023/01/06 10:09:57;;;;;;;11.60;1.42;;;9.60;99.90;;;;;;5067936;28;20083;-52
2023/01/06 10:12:31;;;;;;;7.45;1.65;;;9.70;99.90;;;;;;5067126;28;20080;-51
2023/01/06 10:15:03;;;;;;;10.50;1.33;;;9.70;99.90;;;;;;5064008;28;20468;-55
2023/01/06 10:17:55;;;;;;;12.23;1.30;;;9.70;99.90;;;;;;5068140;28;20052;-56
2023/01/06 10:20:30;;;;;;;;;;;9.80;99.90;;;;;;5070837;28;20076;-54
2023/01/06 10:23:00;;;;;;;10.85;2.00;;;9.70;99.90;;;;;;5065695;28;19921;-50
2023/01/06 10:25:31;;;;;;;7.70;1.40;;;9.80;99.90;;;;;;5056450;28;20140;-56
2023/01/06 10:28:01;;;;;;;15.20;1.63;;;9.80;99.90;;;;;;5070132;28;20059;-57
2023/01/06 10:30:32;;;;;;;9.73;1.95;;;9.90;99.90;;;;;;5065660;28;20056;-57
2023/01/06 10:32:59;;;;;;;14.75;1.92;;;9.90;99.90;;;;;;5070690;28;20499;-52
2023/01/06 10:35:26;;;;;;;11.80;1.77;;;9.90;99.90;;;;;;5051373;28;20056;-50
2023/01/06 10:37:53;;;;;;;16.55;1.65;;;9.90;99.90;;;;;;5037163;28;20086;-56
2023/01/06 10:40:21;;;;;;;16.92;2.40;;;10.00;99.90;;;;;;5051002;28;20076;-56
2023/01/06 10:42:58;;;;;;;15.85;2.35;;;10.00;99.90;;;;;;5061927;28;20419;-53
2023/01/06 10:45:27;;;;;;;14.48;1.83;;;10.00;99.90;;;;;;5051032;28;20076;-55
2023/01/06 10:47:54;;;;;;;13.55;1.83;;;10.10;99.90;;;;;;5067577;28;20080;-51
2023/01/06 10:50:21;;;;;;;14.52;1.80;;;10.20;99.90;;;;;;5071743;28;20091;-55
2023/01/06 10:52:48;;;;;;;15.45;2.22;;;10.20;99.90;;;;;;5069588;28;20052;-54
2023/01/06 10:55:41;;;;;;;17.67;2.15;;;10.30;99.90;;;;;;5069817;28;20087;-56
2023/01/06 10:58:15;;;;;;;12.55;2.10;;;10.40;99.90;;;;;;5066984;28;20083;-56
2023/01/06 11:00:57;;;;;;;11.07;2.00;;;10.40;99.90;;;;;;5064923;28;20049;-51
2023/01/06 11:03:24;;;;;;;15.50;2.08;;;10.50;99.90;;;;;;5044475;28;20087;-56
2023/01/06 11:06:03;;;;;;;15.93;1.70;;;10.50;99.90;;;;;;5059151;28;20049;-53
2023/01/06 11:08:30;;;;;;;20.20;2.42;;;10.50;99.90;;;;;;5067693;28;20052;-53
2023/01/06 11:10:57;;;;;;;13.52;2.70;;;10.50;99.90;;;;;;5051084;28;20129;-55
2023/01/06 11:13:27;;;;;;;17.30;2.47;;;10.50;99.90;;;;;;5059988;28;20053;-48
2023/01/06 11:15:54;;;;;;;11.65;2.10;;;10.50;99.90;;;;;;5069968;28;20059;-52
2023/01/06 11:18:22;;;;;;;12.98;2.03;;;10.60;99.90;;;;;;5049201;28;20133;-53
2023/01/06 11:21:10;;;;;;;14.10;1.83;;;10.60;99.90;;;;;;5065575;28;20396;-53
2023/01/06 11:23:38;;;;;;;15.10;2.60;;;10.60;99.90;;;;;;5067420;28;20125;-53
2023/01/06 11:26:14;;;;;;;8.65;1.67;;;10.60;99.90;;;;;;5063625;28;20551;-55
2023/01/06 11:28:43;;;;;;;12.45;1.60;;;10.60;99.90;;;;;;5058176;28;20084;-55
2023/01/06 11:31:10;;;;;;;12.18;2.20;;;10.60;99.90;;;;;;5045594;28;20087;-55
2023/01/06 11:33:38;;;;;;;18.60;2.08;;;10.60;99.90;;;;;;5051921;28;20080;-53
2023/01/06 11:36:09;;;;;;;15.30;1.98;;;10.70;99.90;;;;;;5064600;28;20125;-55
2023/01/06 11:38:46;;;;;;;11.02;1.58;;;10.70;99.90;;;;;;5045968;28;20483;-54
2023/01/06 11:41:16;;;;;;;14.10;2.75;;;10.60;99.90;;;;;;5060616;28;20136;-52
2023/01/06 11:43:45;;;;;;;14.68;2.65;;;10.60;99.90;;;;;;5068291;28;20159;-54
2023/01/06 11:46:13;;;;;;;10.88;1.58;;;10.50;99.90;;;;;;5068843;28;20456;-54
2023/01/06 11:48:41;;;;;;;17.65;2.03;;;10.40;99.90;;;;;;5050542;28;20061;-55
2023/01/06 11:51:08;;;;;;;16.55;2.20;;;10.40;99.90;;;;;;5076510;28;20075;-56
2023/01/06 11:53:36;;;;;;;10.52;1.80;;;10.40;99.90;;;;;;5074225;28;20090;-49
2023/01/06 11:56:04;;;;;;;15.90;2.15;;;10.30;99.90;;;;;;5056610;28;20064;-56
2023/01/06 11:58:40;;;;;;;11.70;2.13;;;10.30;99.90;;;;;;5056885;28;20131;-54
2023/01/06 12:01:11;;;;;;;12.38;2.42;;;10.30;99.90;;;;;;5050638;28;20046;-54
2023/01/06 12:03:40;;;;;;;13.55;2.03;;;10.30;99.90;;;;;;5068885;28;20068;-54
2023/01/06 12:06:14;;;;;;;16.55;2.53;;;10.40;99.90;;;;;;5054444;28;20127;-50
2023/01/06 12:08:45;;;;;;;11.98;1.65;;;10.40;99.90;;;;;;5072588;28;20098;-55
2023/01/06 12:11:15;;;;;;;12.18;1.80;;;10.40;99.90;;;;;;5045695;28;20080;-55
2023/01/06 12:13:41;;;;;;;17.00;2.40;;;10.40;99.90;;;;;;5050695;28;20084;-55
2023/01/06 12:16:14;;;;;;;14.75;2.13;;;10.40;99.90;;;;;;5065184;28;20114;-55
2023/01/06 12:18:41;;;;;;;14.77;2.17;;;10.30;99.90;;;;;;5072379;28;20049;-55
2023/01/06 12:21:08;;;;;;;13.02;1.95;;;10.30;99.90;;;;;;5074826;28;20052;-55
2023/01/06 12:23:36;;;;;;;12.77;2.45;;;10.30;99.90;;;;;;5055980;28;20129;-55
2023/01/06 12:26:04;;;;;;;13.40;1.80;;;10.20;99.90;;;;;;5070967;28;20080;-56
2023/01/06 12:28:33;;;;;;;15.45;1.98;;;10.20;99.90;;;;;;5052743;28;20452;-56
2023/01/06 12:31:02;;;;;;;11.50;1.83;;;10.10;99.90;;;;;;5054456;28;20076;-48
2023/01/06 12:33:49;;;;;;;16.50;2.15;;;10.10;99.90;;;;;;5072478;28;20044;-56
2023/01/06 12:36:18;;;;;;;16.85;3.47;;;10.10;99.90;;;;;;5052876;28;20056;-55
2023/01/06 12:38:48;;;;;;;20.48;2.55;;;10.00;99.90;;;;;;5056186;28;20133;-53
2023/01/06 12:41:16;;;;;;;14.60;2.45;;;10.00;99.90;;;;;;5070231;28;20096;-55
2023/01/06 12:43:43;;;;;;;11.13;2.15;;;10.00;99.90;;;;;;5071149;28;20079;-51
2023/01/06 12:46:13;;;;;;;12.13;2.08;;;10.00;99.90;;;;;;5072291;28;20107;-55
2023/01/06 12:48:41;;;;;;;13.48;1.95;;;10.00;99.90;;;;;;5073864;28;20094;-52
2023/01/06 12:51:14;;;;;;;16.23;2.60;;;10.00;99.90;;;;;;5054856;28;20428;-53
2023/01/06 12:53:41;;;;;;;17.63;2.00;;;10.10;99.90;;;;;;5047819;28;20088;-53